createdAt,value
2023-04-06T00:01:41.936Z,11.17
2023-04-06T00:06:44.443Z,11.77
2023-04-06T00:11:46.929Z,11.97
2023-04-06T00:16:49.551Z,11.67
2023-04-06T00:21:52.147Z,11.47
2023-04-06T00:26:54.596Z,10.00
2023-04-06T00:31:57.136Z,11.47
2023-04-06T00:36:59.650Z,12.20
2023-04-06T00:42:07.973Z,11.93
2023-04-06T00:47:10.950Z,11.00
2023-04-06T00:52:13.831Z,10.53
2023-04-06T00:57:18.083Z,11.00
2023-04-06T01:02:22.651Z,10.57
2023-04-06T01:07:28.063Z,10.00
2023-04-06T01:12:41.552Z,10.50
2023-04-06T01:17:54.705Z,11.07
2023-04-06T01:22:57.174Z,13.63
2023-04-06T01:28:00.128Z,12.20
2023-04-06T01:33:21.280Z,13.80
2023-04-06T01:38:39.379Z,12.80
2023-04-06T01:43:43.078Z,12.93
2023-04-06T01:48:47.070Z,13.60
2023-04-06T01:54:11.203Z,13.73
2023-04-06T01:59:37.007Z,13.50
2023-04-06T02:04:45.922Z,16.33
2023-04-06T02:09:50.231Z,15.80
2023-04-06T02:15:00.827Z,14.93
2023-04-06T02:20:03.968Z,14.43
2023-04-06T02:25:06.713Z,16.10
2023-04-06T02:30:10.042Z,14.50
2023-04-06T02:35:12.614Z,16.33
2023-04-06T02:40:16.834Z,16.37
2023-04-06T02:45:19.466Z,13.33
2023-04-06T02:50:23.718Z,14.33
2023-04-06T02:55:33.683Z,14.50
2023-04-06T03:00:38.215Z,17.03
2023-04-06T03:05:40.899Z,15.67
2023-04-06T03:10:44.074Z,11.03
2023-04-06T03:15:46.990Z,12.03
2023-04-06T03:20:56.520Z,15.63
2023-04-06T03:26:05.627Z,15.93
2023-04-06T03:31:08.217Z,16.87
2023-04-06T03:36:37.187Z,15.83
2023-04-06T03:41:40.735Z,13.40
2023-04-06T03:47:12.555Z,12.83
2023-04-06T03:52:15.085Z,14.80
2023-04-06T03:57:17.623Z,14.77
2023-04-06T04:02:20.228Z,15.43
2023-04-06T04:07:22.700Z,14.80
2023-04-06T04:12:26.621Z,15.83
2023-04-06T04:17:29.183Z,14.73
2023-04-06T04:22:31.795Z,14.23
2023-04-06T04:27:34.623Z,17.77
2023-04-06T04:32:37.357Z,16.77
2023-04-06T04:37:42.949Z,14.10
2023-04-06T04:42:47.362Z,15.87
2023-04-06T04:47:57.193Z,15.53
2023-04-06T04:53:06.949Z,15.07
2023-04-06T04:58:12.092Z,16.50
2023-04-06T05:03:27.537Z,15.70
2023-04-06T05:08:34.999Z,13.57
2023-04-06T05:13:38.464Z,16.17
2023-04-06T05:18:49.827Z,15.83
2023-04-06T05:23:52.672Z,17.90
2023-04-06T05:28:55.841Z,16.67
2023-04-06T05:33:59.588Z,20.90
2023-04-06T05:39:13.493Z,11.13
2023-04-06T05:44:22.169Z,21.00
2023-04-06T05:49:32.612Z,18.37
2023-04-06T05:54:37.054Z,19.63
2023-04-06T05:59:39.865Z,18.40
2023-04-06T06:04:42.733Z,22.47
2023-04-06T06:09:45.575Z,27.67
2023-04-06T06:15:02.381Z,38.33
2023-04-06T06:20:10.051Z,40.53
2023-04-06T06:25:12.573Z,18.73
2023-04-06T06:30:15.908Z,18.17
2023-04-06T06:35:20.080Z,23.20
2023-04-06T06:40:25.263Z,27.27
2023-04-06T06:45:30.490Z,25.07
2023-04-06T06:50:33.178Z,21.03
2023-04-06T06:55:35.928Z,26.90
2023-04-06T07:00:38.703Z,17.47
2023-04-06T07:05:51.185Z,14.73
2023-04-06T07:10:58.085Z,13.10
2023-04-06T07:16:00.549Z,17.00
2023-04-06T07:21:04.372Z,16.20
2023-04-06T07:26:06.908Z,13.77
2023-04-06T07:31:09.941Z,12.53
2023-04-06T07:36:12.807Z,8.37
2023-04-06T07:41:16.087Z,9.90
2023-04-06T07:46:19.311Z,10.10
2023-04-06T07:51:22.253Z,8.40
2023-04-06T07:56:25.122Z,9.63
2023-04-06T08:01:29.386Z,10.90
2023-04-06T08:06:31.950Z,9.67
2023-04-06T08:11:34.367Z,7.80
2023-04-06T08:16:36.751Z,9.67
2023-04-06T08:21:41.104Z,9.63
2023-04-06T08:26:43.546Z,7.90
2023-04-06T08:31:46.155Z,8.27
2023-04-06T08:36:48.730Z,8.47
2023-04-06T08:41:52.954Z,8.40
2023-04-06T08:46:55.988Z,8.97
2023-04-06T08:52:00.270Z,7.80
2023-04-06T08:57:05.521Z,8.27
2023-04-06T09:02:16.731Z,7.77
2023-04-06T09:07:19.333Z,9.53
2023-04-06T09:12:28.245Z,8.70
2023-04-06T09:17:34.418Z,9.53
2023-04-06T09:22:41.358Z,8.57
2023-04-06T09:27:45.498Z,5.87
2023-04-06T09:32:52.048Z,6.13
2023-04-06T09:37:55.346Z,6.17
2023-04-06T09:42:59.761Z,6.90
2023-04-06T09:48:03.930Z,6.77
2023-04-06T09:53:07.659Z,8.40
2023-04-06T09:58:20.733Z,6.40
2023-04-06T10:03:53.441Z,6.43
2023-04-06T10:08:58.185Z,6.73
2023-04-06T10:14:01.562Z,9.00
2023-04-06T10:19:12.847Z,7.73
2023-04-06T10:24:15.579Z,7.43
2023-04-06T10:29:18.018Z,7.40
2023-04-06T10:34:20.551Z,6.90
2023-04-06T10:39:27.000Z,6.87
2023-04-06T10:44:29.486Z,6.93
2023-04-06T10:49:31.954Z,6.53
2023-04-06T10:54:35.555Z,6.73
2023-04-06T10:59:38.160Z,7.17
2023-04-06T11:04:40.788Z,7.20
2023-04-06T11:09:48.493Z,6.93
2023-04-06T11:15:05.385Z,6.30
2023-04-06T11:20:12.266Z,7.80
2023-04-06T11:25:14.848Z,6.13
2023-04-06T11:30:18.369Z,7.47
2023-04-06T11:35:23.217Z,7.87
2023-04-06T11:40:28.965Z,8.23
2023-04-06T11:45:42.814Z,7.47
2023-04-06T11:50:48.690Z,6.80
2023-04-06T11:55:51.158Z,7.33
2023-04-06T12:00:53.868Z,6.83
2023-04-06T12:05:57.543Z,8.43
2023-04-06T12:11:01.161Z,7.60
2023-04-06T12:16:03.982Z,7.50
2023-04-06T12:21:06.583Z,9.03
2023-04-06T12:26:13.365Z,7.13
2023-04-06T12:31:19.774Z,7.70
2023-04-06T12:36:22.404Z,8.13
2023-04-06T12:41:26.092Z,7.57
2023-04-06T12:46:31.659Z,6.90
2023-04-06T12:51:34.216Z,7.60
2023-04-06T12:56:37.470Z,7.03
2023-04-06T13:01:40.006Z,8.10
2023-04-06T13:06:42.481Z,6.47
2023-04-06T13:11:44.956Z,7.83
2023-04-06T13:16:47.701Z,7.33
2023-04-06T13:21:50.516Z,7.83
2023-04-06T13:26:53.003Z,8.47
2023-04-06T13:31:55.532Z,7.00
2023-04-06T13:36:58.084Z,6.03
2023-04-06T13:42:02.817Z,7.03
2023-04-06T13:47:07.770Z,7.57
2023-04-06T13:52:13.415Z,7.70
2023-04-06T13:57:15.862Z,4.20
2023-04-06T14:02:19.446Z,7.27
2023-04-06T14:07:24.614Z,9.63
2023-04-06T14:12:28.011Z,6.00
2023-04-06T14:17:30.476Z,6.47
2023-04-06T14:22:32.945Z,7.20
2023-04-06T14:27:35.619Z,17.03
2023-04-06T14:32:38.579Z,4.47
2023-04-06T14:37:41.354Z,9.50
2023-04-06T14:42:43.800Z,9.07
2023-04-06T14:47:46.286Z,9.13
2023-04-06T14:52:48.656Z,5.77
2023-04-06T14:57:51.175Z,9.47
2023-04-06T15:02:53.755Z,7.93
2023-04-06T15:07:56.135Z,9.00
2023-04-06T15:12:58.505Z,8.60
2023-04-06T15:18:03.529Z,7.20
2023-04-06T15:23:06.256Z,10.03
2023-04-06T15:28:08.809Z,9.67
2023-04-06T15:33:11.507Z,7.73
2023-04-06T15:38:14.066Z,9.70
2023-04-06T15:43:16.999Z,7.67
2023-04-06T15:48:19.630Z,5.20
2023-04-06T15:53:22.044Z,6.97
2023-04-06T15:58:24.833Z,10.80
2023-04-06T16:03:27.893Z,7.90
2023-04-06T16:08:30.583Z,7.57
2023-04-06T16:13:33.242Z,6.90
2023-04-06T16:18:36.573Z,6.00
2023-04-06T16:23:39.294Z,6.93
2023-04-06T16:28:42.679Z,6.80
2023-04-06T16:33:45.316Z,8.07
2023-04-06T16:38:47.948Z,6.93
2023-04-06T16:43:50.892Z,7.03
2023-04-06T16:48:54.455Z,7.13
2023-04-06T16:53:56.868Z,6.50
2023-04-06T16:58:59.372Z,7.37
2023-04-06T17:04:02.229Z,6.90
2023-04-06T17:09:04.759Z,6.80
2023-04-06T17:14:09.042Z,8.40
2023-04-06T17:19:11.562Z,7.60
2023-04-06T17:24:14.171Z,9.13
2023-04-06T17:29:16.834Z,8.73
2023-04-06T17:34:19.322Z,8.70
2023-04-06T17:39:21.984Z,6.40
2023-04-06T17:44:24.519Z,5.30
2023-04-06T17:49:26.915Z,5.20
2023-04-06T17:54:29.335Z,6.87
2023-04-06T17:59:31.801Z,7.87
2023-04-06T18:04:34.540Z,6.07
2023-04-06T18:09:37.368Z,7.83
2023-04-06T18:14:41.365Z,10.73
2023-04-06T18:19:43.936Z,15.33
2023-04-06T18:24:46.558Z,23.27
2023-04-06T18:29:48.932Z,10.20
2023-04-06T18:34:52.127Z,11.43
2023-04-06T18:39:54.832Z,14.87
2023-04-06T18:44:57.358Z,20.03
2023-04-06T18:49:59.854Z,26.57
2023-04-06T18:55:02.412Z,23.73
2023-04-06T19:00:05.444Z,15.27
2023-04-06T19:05:08.455Z,15.63
2023-04-06T19:10:11.212Z,17.47
2023-04-06T19:15:13.743Z,28.63
2023-04-06T19:20:16.293Z,15.90
2023-04-06T19:25:19.009Z,15.43
2023-04-06T19:30:21.554Z,12.03
2023-04-06T19:35:24.356Z,11.03
2023-04-06T19:40:26.869Z,10.13
2023-04-06T19:45:30.174Z,9.10
2023-04-06T19:50:32.645Z,8.47
2023-04-06T19:55:37.475Z,9.60
2023-04-06T20:00:40.014Z,10.73
2023-04-06T20:05:42.592Z,12.50
2023-04-06T20:10:45.134Z,12.40
2023-04-06T20:15:47.754Z,11.60
2023-04-06T20:20:50.449Z,11.40
2023-04-06T20:25:53.013Z,10.63
2023-04-06T20:30:55.519Z,5.77
2023-04-06T20:36:01.838Z,6.27
2023-04-06T20:41:04.759Z,5.17
2023-04-06T20:46:07.574Z,7.60
2023-04-06T20:51:23.126Z,11.83
2023-04-06T20:56:26.807Z,9.87
2023-04-06T21:01:29.748Z,6.00
2023-04-06T21:06:32.598Z,6.87
2023-04-06T21:11:35.684Z,8.40
2023-04-06T21:16:39.485Z,8.87
2023-04-06T21:21:41.927Z,7.77
2023-04-06T21:26:44.370Z,8.00
2023-04-06T21:31:46.940Z,5.70
2023-04-06T21:36:49.410Z,7.53
2023-04-06T21:41:51.942Z,6.87
2023-04-06T21:46:54.503Z,6.80
2023-04-06T21:51:56.902Z,6.00
2023-04-06T21:56:59.615Z,6.07
2023-04-06T22:02:02.191Z,7.13
2023-04-06T22:07:04.744Z,7.33
2023-04-06T22:12:07.393Z,5.27
2023-04-06T22:17:09.940Z,6.87
2023-04-06T22:22:12.792Z,4.63
2023-04-06T22:27:15.124Z,4.83
2023-04-06T22:32:17.757Z,5.20
2023-04-06T22:37:21.645Z,4.77
2023-04-06T22:42:24.233Z,4.60
2023-04-06T22:47:26.942Z,5.27
2023-04-06T22:52:29.518Z,4.97
2023-04-06T22:57:32.031Z,5.40
2023-04-06T23:02:34.715Z,5.00
2023-04-06T23:07:37.411Z,4.93
2023-04-06T23:12:40.001Z,5.13
2023-04-06T23:17:42.566Z,5.00
2023-04-06T23:22:45.347Z,4.47
2023-04-06T23:27:47.860Z,4.37
2023-04-06T23:32:50.438Z,4.33
2023-04-06T23:37:52.921Z,5.00
2023-04-06T23:42:55.741Z,5.17
2023-04-06T23:47:58.450Z,5.20
2023-04-06T23:53:01.143Z,5.37
2023-04-06T23:58:04.251Z,5.27
